Time;durP1;ratioP1;P1;durP2;ratioP2;P2;SDS_P1;SDS_P2;PMS_P1;PMS_P2;Temp;Humidity;BMP_temperature;BMP_pressure;BME280_temperature;BME280_humidity;BME280_pressure;Samples;Min_cycle;Max_cycle;Signal;HPM_P1;HPM_P2
2022/09/08 00:00:21;;;;;;;;;;;22.90;99.90;;;;;;5021206;28;19909;-76
2022/09/08 00:02:47;;;;;;;;;;;22.90;99.90;;;;;;5029549;28;19909;-74
2022/09/08 00:05:14;;;;;;;;;;;22.90;99.90;;;;;;5011849;28;19921;-75
2022/09/08 00:07:42;;;;;;;;;;;23.00;99.90;;;;;;5027007;28;19972;-76
2022/09/08 00:10:08;;;;;;;;;;;22.90;99.90;;;;;;5024204;28;19913;-75
2022/09/08 00:12:34;;;;;;;;;;;22.90;99.90;;;;;;5029651;28;19917;-76
2022/09/08 00:15:00;;;;;;;;;;;22.90;99.90;;;;;;5031486;28;19941;-74
2022/09/08 00:17:27;;;;;;;;;;;22.80;99.90;;;;;;5024805;28;19967;-76
2022/09/08 00:19:52;;;;;;;;;;;22.80;99.90;;;;;;5029844;28;20259;-76
2022/09/08 00:22:18;;;;;;;;;;;22.80;99.90;;;;;;4992379;28;20000;-78
2022/09/08 00:24:44;;;;;;;;;;;22.90;99.90;;;;;;5005678;28;19921;-76
2022/09/08 00:27:09;;;;;;;;;;;22.80;99.90;;;;;;5006529;28;20039;-77
2022/09/08 00:29:35;;;;;;;;;;;22.80;99.90;;;;;;4992241;28;19928;-79
2022/09/08 00:32:01;;;;;;;;;;;22.80;99.90;;;;;;5005302;28;19910;-76
2022/09/08 00:34:27;;;;;;;;;;;22.60;99.90;;;;;;5002406;28;19918;-76
2022/09/08 00:36:56;;;;;;;;;;;22.50;99.90;;;;;;4988318;28;19917;-76
2022/09/08 00:39:22;;;;;;;;;;;22.40;99.90;;;;;;4986786;28;19916;-77
2022/09/08 00:41:49;;;;;;;;;;;22.50;99.90;;;;;;5017159;28;19921;-76
2022/09/08 00:44:34;;;;;;;;;;;22.50;99.90;;;;;;5006184;28;19920;-77
2022/09/08 00:47:00;;;;;;;;;;;22.60;99.90;;;;;;5005900;28;19909;-76
2022/09/08 00:49:27;;;;;;;;;;;22.60;99.90;;;;;;4998993;28;20008;-77
2022/09/08 00:51:54;;;;;;;;;;;22.70;99.90;;;;;;5003959;28;19914;-76
2022/09/08 00:54:20;;;;;;;;;;;22.80;99.90;;;;;;5004529;28;19954;-76
2022/09/08 00:56:47;;;;;;;;;;;22.90;99.90;;;;;;5002327;28;19960;-77
2022/09/08 00:59:15;;;;;;;;;;;23.00;99.90;;;;;;5004459;28;19909;-77
2022/09/08 01:01:41;;;;;;;;;;;23.00;99.90;;;;;;5001855;28;20077;-76
2022/09/08 01:04:07;;;;;;;;;;;22.70;99.90;;;;;;5003254;28;20327;-76
2022/09/08 01:12:44;;;;;;;;;;;22.80;99.90;;;;;;5004748;28;20290;-75
2022/09/08 01:15:20;;;;;;;;;;;22.80;99.90;;;;;;4980899;28;19921;-76
2022/09/08 01:17:49;;;;;;;;;;;22.80;99.90;;;;;;5005534;28;20001;-76
2022/09/08 01:20:18;;;;;;;;;;;22.90;99.90;;;;;;5007415;28;20284;-77
2022/09/08 01:23:02;;;;;;;;;;;22.80;99.90;;;;;;5002293;28;20394;-75
2022/09/08 01:25:42;;;;;;;;;;;22.70;99.90;;;;;;5017408;28;20382;-76
2022/09/08 01:28:11;;;;;;;;;;;22.60;99.90;;;;;;4988715;28;19909;-77
2022/09/08 01:30:37;;;;;;;;;;;22.50;99.90;;;;;;5003157;28;20378;-77
2022/09/08 01:33:05;;;;;;;;;;;22.50;99.90;;;;;;5001760;28;19924;-76
2022/09/08 01:38:25;;;;;;;;;;;22.60;99.90;;;;;;4988645;28;20368;-78
2022/09/08 01:40:51;;;;;;;;;;;22.70;99.90;;;;;;5005329;28;19920;-77
2022/09/08 01:43:17;;;;;;;;;;;22.80;99.90;;;;;;5024133;28;19999;-79
2022/09/08 01:45:43;;;;;;;;;;;22.90;99.90;;;;;;5019174;28;19953;-77
2022/09/08 01:48:09;;;;;;;;;;;22.90;99.90;;;;;;5005237;28;19936;-77
2022/09/08 01:50:34;;;;;;;;;;;22.70;99.90;;;;;;5008985;28;19909;-78
2022/09/08 01:53:01;;;;;;;;;;;22.60;99.90;;;;;;5005060;28;19921;-78
2022/09/08 01:55:27;;;;;;;;;;;22.80;99.90;;;;;;5020515;28;20263;-77
2022/09/08 01:57:53;;;;;;;;;;;22.80;99.90;;;;;;5006448;28;20354;-77
2022/09/08 02:00:19;;;;;;;;;;;22.70;99.90;;;;;;5005410;28;19963;-77
2022/09/08 02:02:44;;;;;;;;;;;22.80;99.90;;;;;;5004136;28;20008;-77
2022/09/08 02:05:10;;;;;;;;;;;22.90;99.90;;;;;;5004096;28;19944;-76
2022/09/08 02:07:37;;;;;;;;;;;23.00;99.90;;;;;;5004311;28;19917;-77
2022/09/08 02:10:07;;;;;;;;;;;23.00;99.90;;;;;;5004755;28;20480;-77
2022/09/08 02:12:32;;;;;;;;;;;22.80;99.90;;;;;;4985120;28;19913;-77
2022/09/08 02:14:58;;;;;;;;;;;22.80;99.90;;;;;;5002080;28;19975;-76
2022/09/08 02:17:24;;;;;;;;;;;22.70;99.90;;;;;;4996631;28;19916;-77
2022/09/08 02:19:49;;;;;;;;;;;22.60;99.90;;;;;;5006378;28;20007;-76
2022/09/08 02:22:15;;;;;;;;;;;22.40;99.90;;;;;;4986860;28;20469;-77
2022/09/08 02:24:41;;;;;;;;;;;22.20;99.90;;;;;;5004032;28;19910;-76
2022/09/08 02:27:07;;;;;;;;;;;22.10;99.90;;;;;;4985302;28;20367;-77
2022/09/08 02:29:33;;;;;;;;;;;22.00;99.90;;;;;;5000380;28;19917;-77
2022/09/08 02:31:59;;;;;;;;;;;21.90;99.90;;;;;;4988245;28;20386;-76
2022/09/08 02:34:24;;;;;;;;;;;22.10;99.90;;;;;;5013571;28;19905;-77
2022/09/08 02:36:50;;;;;;;;;;;22.10;99.90;;;;;;5006686;28;19913;-77
2022/09/08 02:39:17;;;;;;;;;;;22.00;99.90;;;;;;5004164;28;19909;-77
2022/09/08 02:41:42;;;;;;;;;;;21.90;99.90;;;;;;4991858;28;19917;-76
2022/09/08 02:44:09;;;;;;;;;;;21.80;99.90;;;;;;4994314;28;19913;-76
2022/09/08 02:46:35;;;;;;;;;;;21.80;99.90;;;;;;4990242;28;19914;-77
2022/09/08 02:49:00;;;;;;;;;;;21.90;99.90;;;;;;4991543;28;19914;-76
2022/09/08 02:51:26;;;;;;;;;;;21.90;99.90;;;;;;5009505;28;19943;-76
2022/09/08 02:53:54;;;;;;;;;;;21.90;99.90;;;;;;5010775;28;19910;-76
2022/09/08 02:56:19;;;;;;;;;;;21.90;99.90;;;;;;4991236;28;23846;-78
2022/09/08 02:58:45;;;;;;;;;;;22.10;99.90;;;;;;4993784;28;19909;-78
2022/09/08 03:01:11;;;;;;;;;;;22.10;99.90;;;;;;5010763;28;19909;-76
2022/09/08 03:03:37;;;;;;;;;;;21.90;99.90;;;;;;5009251;28;19918;-77
2022/09/08 03:06:02;;;;;;;;;;;21.80;99.90;;;;;;5016703;28;19944;-76
2022/09/08 03:08:28;;;;;;;;;;;21.80;99.90;;;;;;5028365;28;19991;-75
2022/09/08 03:10:54;;;;;;;;;;;21.90;99.90;;;;;;5014505;28;19920;-76
2022/09/08 03:13:20;;;;;;;;;;;21.70;99.90;;;;;;5023221;28;19914;-76
2022/09/08 03:15:46;;;;;;;;;;;21.60;99.90;;;;;;5026569;28;19988;-76
2022/09/08 03:18:11;;;;;;;;;;;21.50;99.90;;;;;;5007858;28;19949;-77
2022/09/08 03:20:38;;;;;;;;;;;21.40;99.90;;;;;;5009799;28;19917;-76
2022/09/08 03:23:04;;;;;;;;;;;21.40;99.90;;;;;;5008239;28;19917;-77
2022/09/08 03:25:30;;;;;;;;;;;21.40;99.90;;;;;;5006321;28;20394;-76
2022/09/08 03:27:55;;;;;;;;;;;21.60;99.90;;;;;;5008418;28;20005;-77
2022/09/08 03:30:21;;;;;;;;;;;21.80;99.90;;;;;;5009644;28;20000;-79
2022/09/08 03:32:47;;;;;;;;;;;21.90;99.90;;;;;;5013202;28;19971;-76
2022/09/08 03:35:14;;;;;;;;;;;22.10;99.90;;;;;;5010742;28;19917;-77
2022/09/08 03:37:40;;;;;;;;;;;22.00;99.90;;;;;;4991800;28;19916;-76
2022/09/08 03:40:06;;;;;;;;;;;22.10;99.90;;;;;;5010083;28;19913;-77
2022/09/08 03:42:34;;;;;;;;;;;22.10;99.90;;;;;;5013648;28;19916;-76
2022/09/08 03:45:00;;;;;;;;;;;22.00;99.90;;;;;;5024730;28;20330;-77
2022/09/08 03:47:26;;;;;;;;;;;22.10;99.90;;;;;;4990733;28;19920;-78
2022/09/08 03:49:52;;;;;;;;;;;22.20;99.90;;;;;;5013915;28;19909;-78
2022/09/08 03:52:18;;;;;;;;;;;22.10;99.90;;;;;;5007936;28;19972;-77
2022/09/08 03:54:50;;;;;;;;;;;22.20;99.90;;;;;;5007211;28;19932;-76
2022/09/08 03:57:17;;;;;;;;;;;22.10;99.90;;;;;;5024093;28;19967;-76
2022/09/08 03:59:43;;;;;;;;;;;22.10;99.90;;;;;;5007546;28;20172;-77
2022/09/08 04:02:09;;;;;;;;;;;22.10;99.90;;;;;;4991373;28;20132;-77
2022/09/08 04:04:35;;;;;;;;;;;22.20;99.90;;;;;;4986781;28;20440;-78
2022/09/08 04:07:00;;;;;;;;;;;22.20;99.90;;;;;;5030935;28;20393;-77
2022/09/08 04:09:26;;;;;;;;;;;22.20;99.90;;;;;;5015000;28;19913;-78
2022/09/08 04:12:07;;;;;;;;;;;22.10;99.90;;;;;;5019061;28;19960;-80
2022/09/08 04:14:33;;;;;;;;;;;22.10;99.90;;;;;;5016446;28;20311;-77
2022/09/08 04:16:59;;;;;;;;;;;22.20;99.90;;;;;;4998071;28;19909;-77
2022/09/08 04:19:25;;;;;;;;;;;22.20;99.90;;;;;;4992883;28;19913;-77
2022/09/08 04:21:50;;;;;;;;;;;22.20;99.90;;;;;;5005380;28;19913;-77
2022/09/08 04:24:17;;;;;;;;;;;22.30;99.90;;;;;;5003297;28;20804;-76
2022/09/08 04:26:42;;;;;;;;;;;22.30;99.90;;;;;;5003803;28;19918;-77
2022/09/08 04:29:08;;;;;;;;;;;22.30;99.90;;;;;;4999665;28;19914;-78
2022/09/08 04:31:35;;;;;;;;;;;22.20;99.90;;;;;;4987142;28;19976;-76
2022/09/08 04:34:02;;;;;;;;;;;22.20;99.90;;;;;;5002720;28;19933;-77
2022/09/08 04:36:27;;;;;;;;;;;22.20;99.90;;;;;;5002208;28;19921;-77
2022/09/08 04:38:54;;;;;;;;;;;22.20;99.90;;;;;;4994263;28;19957;-78
2022/09/08 04:41:19;;;;;;;;;;;22.30;99.90;;;;;;5004587;28;19909;-77
2022/09/08 04:43:45;;;;;;;;;;;22.30;99.90;;;;;;5001987;28;20306;-77
2022/09/08 04:46:12;;;;;;;;;;;22.20;99.90;;;;;;4986818;28;21331;-78
2022/09/08 04:48:38;;;;;;;;;;;22.20;99.90;;;;;;5023213;28;19963;-77
2022/09/08 04:51:05;;;;;;;;;;;22.10;99.90;;;;;;5009426;28;19960;-78
2022/09/08 04:53:31;;;;;;;;;;;21.90;99.90;;;;;;5024697;28;19939;-77
2022/09/08 04:55:57;;;;;;;;;;;21.90;99.90;;;;;;5008373;28;19917;-77
2022/09/08 04:58:37;;;;;;;;;;;21.90;99.90;;;;;;5021448;28;19915;-76
2022/09/08 05:01:07;;;;;;;;;;;22.00;99.90;;;;;;5013694;28;20287;-77
2022/09/08 05:03:33;;;;;;;;;;;22.00;99.90;;;;;;5014125;28;20287;-76
2022/09/08 05:06:09;;;;;;;;;;;21.90;99.90;;;;;;5013768;28;20036;-78
2022/09/08 05:08:34;;;;;;;;;;;22.00;99.90;;;;;;5019074;28;20017;-78
2022/09/08 05:11:00;;;;;;;;;;;22.10;99.90;;;;;;5009765;28;19977;-78
2022/09/08 05:13:26;;;;;;;;;;;22.20;99.90;;;;;;5000631;28;19964;-78
2022/09/08 05:15:52;;;;;;;;;;;22.20;99.90;;;;;;5018169;28;20281;-72
2022/09/08 05:18:17;;;;;;;;;;;22.30;99.90;;;;;;5005636;28;19913;-71
2022/09/08 05:20:43;;;;;;;;;;;22.30;99.90;;;;;;5003031;28;19913;-71
2022/09/08 05:23:09;;;;;;;;;;;22.30;99.90;;;;;;5008307;28;19921;-71
2022/09/08 05:25:34;;;;;;;;;;;22.60;99.90;;;;;;5010742;28;19913;-72
2022/09/08 05:28:01;;;;;;;;;;;22.70;99.90;;;;;;5009424;28;19916;-70
2022/09/08 05:30:26;;;;;;;;;;;22.80;99.90;;;;;;5011070;28;19916;-71
2022/09/08 05:32:52;;;;;;;;;;;22.90;99.90;;;;;;4993714;28;20282;-70
2022/09/08 05:35:17;;;;;;;;;;;23.00;99.90;;;;;;5010718;28;19913;-70
2022/09/08 05:37:43;;;;;;;;;;;23.20;99.90;;;;;;5011250;28;19913;-71
2022/09/08 05:40:09;;;;;;;;;;;23.30;99.90;;;;;;4990644;28;20181;-70
2022/09/08 05:42:34;;;;;;;;;;;23.40;99.90;;;;;;4993776;28;19909;-71
2022/09/08 05:45:00;;;;;;;;;;;23.50;99.90;;;;;;5010872;28;20356;-72
2022/09/08 05:47:26;;;;;;;;;;;23.60;99.90;;;;;;5011202;28;19916;-69
2022/09/08 05:49:52;;;;;;;;;;;23.70;99.90;;;;;;5005732;28;20008;-69
2022/09/08 05:52:18;;;;;;;;;;;23.70;99.90;;;;;;5011474;28;19909;-70
2022/09/08 05:54:43;;;;;;;;;;;23.80;99.90;;;;;;4998123;28;19910;-68
2022/09/08 05:57:09;;;;;;;;;;;23.80;99.90;;;;;;5002154;28;20318;-67
2022/09/08 05:59:35;;;;;;;;;;;23.90;99.90;;;;;;5018344;28;19905;-70
2022/09/08 06:02:00;;;;;;;;;;;24.00;99.90;;;;;;5008613;28;19932;-70
2022/09/08 06:04:26;;;;;;;;;;;23.90;99.90;;;;;;5031383;28;19980;-71
2022/09/08 06:06:52;;;;;;;;;;;24.00;99.90;;;;;;5019894;28;19916;-71
2022/09/08 06:09:18;;;;;;;;;;;24.00;99.90;;;;;;5003347;28;21455;-70
2022/09/08 06:11:43;;;;;;;;;;;24.10;99.90;;;;;;5010766;28;19909;-72
2022/09/08 06:14:10;;;;;;;;;;;24.00;99.90;;;;;;4995651;28;20296;-68
2022/09/08 06:16:36;;;;;;;;;;;24.10;99.90;;;;;;5013867;28;19913;-70
2022/09/08 06:19:02;;;;;;;;;;;24.00;99.90;;;;;;5002578;28;19916;-71
2022/09/08 06:21:31;;;;;;;;;;;23.90;99.90;;;;;;5006046;28;19913;-70
2022/09/08 06:23:58;;;;;;;;;;;24.00;99.90;;;;;;5012410;28;19924;-71
2022/09/08 06:26:27;;;;;;;;;;;24.00;99.90;;;;;;4989945;28;19917;-71
2022/09/08 06:29:27;;;;;;;;;;;24.10;99.90;;;;;;5014891;28;19909;-72
2022/09/08 06:32:09;;;;;;;;;;;24.00;99.90;;;;;;4994666;28;19925;-70
2022/09/08 06:34:40;;;;;;;;;;;24.10;99.90;;;;;;5012143;28;19912;-71
2022/09/08 06:37:09;;;;;;;;;;;24.20;99.90;;;;;;5012086;28;19909;-72
2022/09/08 06:39:41;;;;;;;;;;;24.30;99.90;;;;;;5010960;28;19909;-70
2022/09/08 06:42:12;;;;;;;;;;;24.30;99.90;;;;;;5009200;28;19910;-75
2022/09/08 06:44:39;;;;;;;;;;;24.40;99.90;;;;;;4994399;28;19906;-71
2022/09/08 06:47:11;;;;;;;;;;;24.40;99.90;;;;;;5025260;28;19916;-73
2022/09/08 06:49:37;;;;;;;;;;;24.40;99.90;;;;;;5017106;28;19991;-72
2022/09/08 06:52:08;;;;;;;;;;;24.50;99.90;;;;;;5011124;28;20185;-70
2022/09/08 06:54:34;;;;;;;;;;;24.60;99.90;;;;;;5009198;28;19920;-72
2022/09/08 06:57:00;;;;;;;;;;;24.70;99.90;;;;;;4993263;28;19910;-70
2022/09/08 06:59:44;;;;;;;;;;;24.80;99.90;;;;;;5011240;28;19905;-71
2022/09/08 07:02:19;;;;;;;;;;;25.00;99.90;;;;;;5010063;28;19961;-72
2022/09/08 07:04:54;;;;;;;;;;;25.30;99.90;;;;;;4991154;28;19950;-72
2022/09/08 07:07:28;;;;;;;;;;;25.50;99.90;;;;;;5005969;28;19945;-73
2022/09/08 07:09:53;;;;;;;;;;;25.70;99.90;;;;;;5009614;28;20298;-72
2022/09/08 07:12:25;;;;;;;;;;;25.70;99.90;;;;;;5010998;28;19906;-74
2022/09/08 07:15:16;;;;;;;;;;;25.50;99.90;;;;;;4993878;28;20423;-74
2022/09/08 07:17:55;;;;;;;;;;;25.50;99.90;;;;;;5010093;28;19910;-72
2022/09/08 07:20:25;;;;;;;;;;;25.50;99.90;;;;;;4990117;28;19906;-73
2022/09/08 07:22:56;;;;;;;;;;;25.50;99.90;;;;;;4991753;28;19938;-71
2022/09/08 07:25:25;;;;;;;;;;;25.50;99.90;;;;;;5006323;28;19905;-73
2022/09/08 07:27:54;;;;;;;;;;;25.40;99.90;;;;;;5011109;28;19909;-71
2022/09/08 07:30:20;;;;;;;;;;;25.40;99.90;;;;;;5015300;28;19919;-72
2022/09/08 07:32:47;;;;;;;;;;;25.50;99.90;;;;;;5030166;28;20003;-72
2022/09/08 07:35:23;;;;;;;;;;;25.40;99.90;;;;;;5029557;28;19909;-71
2022/09/08 07:37:51;;;;;;;;;;;25.40;99.90;;;;;;5014079;28;19917;-72
2022/09/08 07:40:18;;;;;;;;;;;25.50;99.90;;;;;;4997357;28;20395;-71
2022/09/08 07:43:04;;;;;;;;;;;25.50;99.90;;;;;;5015291;28;19957;-73
2022/09/08 07:45:39;;;;;;;;;;;25.60;99.90;;;;;;5020119;28;19944;-72
2022/09/08 07:48:05;;;;;;;;;;;25.70;99.90;;;;;;5005747;28;19917;-72
2022/09/08 07:50:54;;;;;;;;;;;25.90;99.90;;;;;;5027032;28;19933;-72
2022/09/08 07:53:25;;;;;;;;;;;26.10;99.90;;;;;;5030317;28;19917;-70
2022/09/08 07:55:52;;;;;;;;;;;26.20;99.90;;;;;;5028270;28;19913;-70
2022/09/08 07:58:25;;;;;;;;;;;26.40;99.90;;;;;;5024104;28;19955;-71
2022/09/08 08:01:09;;;;;;;;;;;26.50;99.90;;;;;;4996531;28;19928;-72
2022/09/08 08:03:35;;;;;;;;;;;26.70;99.90;;;;;;4996238;28;19905;-73
2022/09/08 08:06:05;;;;;;;;;;;26.80;99.90;;;;;;5012815;28;19912;-72
2022/09/08 08:08:34;;;;;;;;;;;26.80;99.90;;;;;;5013552;28;19947;-72
2022/09/08 08:11:08;;;;;;;;;;;26.90;99.90;;;;;;4996181;28;19913;-72
2022/09/08 08:13:53;;;;;;;;;;;27.10;99.90;;;;;;4996499;28;19909;-72
2022/09/08 08:16:41;;;;;;;;;;;27.00;99.90;;;;;;4995832;28;19940;-73
2022/09/08 08:19:17;;;;;;;;;;;26.90;99.90;;;;;;5028517;28;19912;-73
2022/09/08 08:21:46;;;;;;;;;;;27.00;99.90;;;;;;5014120;28;20000;-73
2022/09/08 08:24:31;;;;;;;;;;;27.00;99.90;;;;;;5013933;28;19992;-70
2022/09/08 08:27:02;;;;;;;;;;;27.10;99.90;;;;;;5012947;28;19909;-71
2022/09/08 08:29:32;;;;;;;;;;;27.10;99.90;;;;;;5013257;28;20295;-72
2022/09/08 08:31:57;;;;;;;;;;;27.20;99.90;;;;;;4995998;28;20391;-72
2022/09/08 08:34:28;;;;;;;;;;;27.40;99.90;;;;;;4995587;28;19905;-70
2022/09/08 08:36:57;;;;;;;;;;;27.60;99.90;;;;;;4992072;28;20020;-73
2022/09/08 08:39:23;;;;;;;;;;;27.60;99.90;;;;;;5013184;28;19906;-70
2022/09/08 08:41:55;;;;;;;;;;;27.60;99.90;;;;;;5013417;28;20004;-71
2022/09/08 08:44:39;;;;;;;;;;;27.90;99.90;;;;;;5013026;28;19913;-71
2022/09/08 08:47:05;;;;;;;;;;;28.20;99.90;;;;;;5012146;28;19949;-71
2022/09/08 08:49:37;;;;;;;;;;;28.60;99.90;;;;;;5012618;28;19959;-73
2022/09/08 08:52:08;;;;;;;;;;;28.80;99.90;;;;;;5013052;28;19906;-72
2022/09/08 08:54:43;;;;;;;;;;;28.80;99.90;;;;;;5012720;28;19909;-72
2022/09/08 08:57:15;;;;;;;;;;;28.70;99.90;;;;;;4994042;28;19964;-73
2022/09/08 08:59:59;;;;;;;;;;;28.40;99.90;;;;;;5012568;28;19911;-72
2022/09/08 09:02:24;;;;;;;;;;;28.20;99.90;;;;;;4995237;28;19905;-72
2022/09/08 09:04:53;;;;;;;;;;;28.00;99.90;;;;;;5012381;28;20413;-72
2022/09/08 09:07:19;;;;;;;;;;;27.70;99.90;;;;;;5011422;28;20340;-71
2022/09/08 09:10:00;;;;;;;;;;;27.50;99.90;;;;;;5012427;28;19952;-71
2022/09/08 09:12:37;;;;;;;;;;;27.30;99.90;;;;;;4995150;28;19905;-71
2022/09/08 09:15:19;;;;;;;;;;;27.20;99.90;;;;;;5013000;28;19913;-72
2022/09/08 09:17:47;;;;;;;;;;;26.90;99.90;;;;;;5011542;28;19999;-71
2022/09/08 09:20:15;;;;;;;;;;;26.70;99.90;;;;;;5012691;28;19905;-72
2022/09/08 09:22:53;;;;;;;;;;;26.60;99.90;;;;;;5012737;28;20364;-73
2022/09/08 09:25:31;;;;;;;;;;;26.30;99.90;;;;;;4994401;28;20454;-72
2022/09/08 09:28:20;;;;;;;;;;;25.40;99.90;;;;;;5011397;28;19916;-70
2022/09/08 09:31:05;;;;;;;;;;;23.60;99.90;;;;;;5001484;28;19905;-71
2022/09/08 09:33:39;;;;;;;;;;;22.70;99.90;;;;;;5011350;28;19931;-72
2022/09/08 09:36:19;;;;;;;;;;;22.20;99.90;;;;;;5011211;28;19910;-70
2022/09/08 09:38:56;;;;;;;;;;;21.60;99.90;;;;;;5007326;28;19905;-70
2022/09/08 09:41:40;;;;;;;;;;;21.20;99.90;;;;;;4992484;28;19905;-69
2022/09/08 09:44:08;;;;;;;;;;;20.70;99.90;;;;;;4992535;28;19906;-71
2022/09/08 09:46:40;;;;;;;;;;;20.30;99.90;;;;;;4994618;28;19917;-71
2022/09/08 09:49:12;;;;;;;;;;;20.10;99.90;;;;;;5026754;28;19925;-71
2022/09/08 09:51:41;;;;;;;;;;;20.00;99.90;;;;;;5027262;28;19910;-69
2022/09/08 09:54:07;;;;;;;;;;;19.90;99.90;;;;;;4994805;28;19952;-71
2022/09/08 09:56:32;;;;;;;;;;;20.00;99.90;;;;;;5010654;28;19961;-69
2022/09/08 09:59:04;;;;;;;;;;;19.90;99.90;;;;;;5023689;28;19909;-69
2022/09/08 10:01:45;;;;;;;;;;;20.00;99.90;;;;;;5011487;28;20421;-71
2022/09/08 10:04:23;;;;;;;;;;;19.90;99.90;;;;;;5011759;28;19954;-70
2022/09/08 10:06:51;;;;;;;;;;;20.00;99.90;;;;;;4990076;28;19909;-71
2022/09/08 10:09:40;;;;;;;;;;;20.20;99.90;;;;;;4986862;28;20008;-69
2022/09/08 10:12:15;;;;;;;;;;;20.10;99.90;;;;;;4975301;28;19950;-68
2022/09/08 10:14:46;;;;;;;;;;;19.90;99.90;;;;;;5014385;28;19927;-67
2022/09/08 10:17:30;;;;;;;;;;;19.60;99.90;;;;;;4996940;28;19913;-64
2022/09/08 10:20:14;;;;;;;;;;;19.50;99.90;;;;;;5014459;28;19906;-66
2022/09/08 10:22:50;;;;;;;;;;;19.50;99.90;;;;;;5011768;28;19918;-67
2022/09/08 10:25:15;;;;;;;;;;;19.50;99.90;;;;;;4994868;28;19906;-71
2022/09/08 10:28:13;;;;;;;;;;;19.40;99.90;;;;;;5010045;28;19910;-71
2022/09/08 10:30:42;;;;;;;;;;;19.50;99.90;;;;;;4971667;28;19949;-67
2022/09/08 10:33:10;;;;;;;73.40;7.63;;;19.20;99.90;;;;;;4990821;28;20916;-68
2022/09/08 10:35:45;;;;;;;39.53;5.47;;;18.90;99.90;;;;;;4991672;28;20026;-69
2022/09/08 10:38:48;;;;;;;7.00;3.53;;;18.70;99.90;;;;;;4991753;28;20033;-71
2022/09/08 10:41:17;;;;;;;7.90;4.95;;;18.60;99.90;;;;;;5004952;28;20029;-73
2022/09/08 10:43:48;;;;;;;9.00;6.03;;;18.90;99.90;;;;;;5011941;28;20087;-73
2022/09/08 10:47:11;;;;;;;12.63;5.60;;;19.10;99.90;;;;;;5015397;28;20033;-71
2022/09/08 10:50:11;;;;;;;102.22;8.05;;;19.20;99.90;;;;;;4934015;29;20379;-70
2022/09/08 10:53:13;;;;;;;10.95;5.68;;;19.10;99.90;;;;;;4934568;29;20062;-71
2022/09/08 10:56:04;;;;;;;11.95;4.95;;;18.90;99.90;;;;;;5017792;28;20049;-71
2022/09/08 10:58:57;;;;;;;22.58;4.80;;;18.80;99.90;;;;;;4994269;28;20041;-72
2022/09/08 11:01:35;;;;;;;23.77;5.00;;;18.80;99.90;;;;;;4975971;28;20516;-71
2022/09/08 11:04:38;;;;;;;18.55;4.95;;;18.70;99.90;;;;;;4996206;28;20041;-72
2022/09/08 11:07:35;;;;;;;18.67;4.95;;;18.70;99.90;;;;;;5011326;28;20077;-72
2022/09/08 11:10:26;;;;;;;22.60;3.95;;;18.70;99.90;;;;;;5015948;28;20048;-71
2022/09/08 11:13:46;;;;;;;9.60;4.03;;;18.70;99.90;;;;;;5027710;28;20109;-70
2022/09/08 11:16:33;;;;;;;10.00;4.65;;;18.60;99.90;;;;;;4912648;29;20649;-70
2022/09/08 11:19:40;;;;;;;8.50;3.15;;;18.60;99.90;;;;;;5005326;28;20042;-72
2022/09/08 11:22:08;;;;;;;11.07;5.57;;;18.80;99.90;;;;;;5018628;28;20030;-71
2022/09/08 11:24:42;;;;;;;4.35;2.80;;;18.90;99.90;;;;;;5020227;28;20041;-74
2022/09/08 11:27:23;;;;;;;12.02;3.78;;;19.00;99.90;;;;;;5022122;28;20059;-72
2022/09/08 11:30:17;;;;;;;14.50;3.55;;;19.10;99.90;;;;;;5023580;28;20096;-70
2022/09/08 11:33:06;;;;;;;8.15;4.03;;;19.00;99.90;;;;;;5019641;28;20467;-71
2022/09/08 11:35:47;;;;;;;5.80;3.13;;;19.00;99.90;;;;;;4972465;28;20134;-72
2022/09/08 11:38:18;;;;;;;10.57;4.55;;;19.00;99.90;;;;;;5018296;28;20462;-72
2022/09/08 11:41:08;;;;;;;11.90;4.78;;;19.00;99.90;;;;;;5026711;28;20109;-70
2022/09/08 11:43:57;;;;;;;9.00;4.40;;;19.20;99.90;;;;;;5023254;28;20033;-69
2022/09/08 11:47:04;;;;;;;27.90;5.47;;;19.30;99.90;;;;;;4986979;28;20060;-70
2022/09/08 11:49:52;;;;;;;11.73;3.40;;;19.10;99.90;;;;;;4936069;28;20107;-70
2022/09/08 11:52:34;;;;;;;5.60;4.00;;;19.10;99.90;;;;;;5010534;28;20133;-70
2022/09/08 11:55:24;;;;;;;68.68;12.35;;;19.00;99.90;;;;;;5014729;28;20507;-71
2022/09/08 11:58:26;;;;;;;103.57;11.93;;;19.10;99.90;;;;;;4995512;28;20034;-73
2022/09/08 12:01:10;;;;;;;29.80;6.22;;;19.00;99.90;;;;;;4988725;28;20045;-72
2022/09/08 12:03:53;;;;;;;17.80;7.45;;;19.00;99.90;;;;;;5014341;28;20026;-71
2022/09/08 12:06:34;;;;;;;17.38;7.10;;;19.00;99.90;;;;;;5018793;28;20029;-71
2022/09/08 12:09:25;;;;;;;17.83;6.43;;;19.30;99.90;;;;;;4996782;28;20031;-71
2022/09/08 12:12:06;;;;;;;16.75;7.50;;;19.20;99.90;;;;;;4998052;28;20104;-73
2022/09/08 12:14:50;;;;;;;13.15;6.63;;;19.20;99.90;;;;;;5012812;28;20054;-70
2022/09/08 12:17:38;;;;;;;15.63;6.78;;;19.20;99.90;;;;;;5020705;28;20036;-68
2022/09/08 12:20:30;;;;;;;21.98;7.70;;;19.30;99.90;;;;;;5024788;28;20021;-69
2022/09/08 12:23:02;;;;;;;11.45;5.53;;;19.50;99.90;;;;;;4994921;28;20517;-68
2022/09/08 12:26:02;;;;;;;12.55;6.90;;;19.60;99.90;;;;;;4995227;28;20034;-70
2022/09/08 12:28:51;;;;;;;13.48;5.85;;;19.50;99.90;;;;;;5012766;28;20030;-67
2022/09/08 12:31:31;;;;;;;14.35;7.20;;;19.60;99.90;;;;;;5011726;28;20033;-72
2022/09/08 12:34:28;;;;;;;10.40;5.20;;;19.60;99.90;;;;;;5013811;28;20052;-70
2022/09/08 12:37:18;;;;;;;7.82;4.80;;;19.60;99.90;;;;;;5010889;28;20321;-72
2022/09/08 12:39:56;;;;;;;10.57;6.55;;;19.60;99.90;;;;;;4994297;28;20030;-71
2022/09/08 12:42:49;;;;;;;9.20;4.00;;;19.60;99.90;;;;;;4993046;28;20025;-68
2022/09/08 12:45:49;;;;;;;14.35;4.97;;;19.60;99.90;;;;;;4987428;28;20026;-69
2022/09/08 12:48:37;;;;;;;8.82;4.35;;;19.50;99.90;;;;;;4993187;28;20077;-67
2022/09/08 12:51:31;;;;;;;9.00;4.20;;;19.50;99.90;;;;;;5002367;28;20388;-71
2022/09/08 12:54:24;;;;;;;24.92;5.88;;;19.50;99.90;;;;;;4992341;28;20112;-68
2022/09/08 12:57:21;;;;;;;12.05;5.28;;;19.60;99.90;;;;;;5012554;28;20105;-71
2022/09/08 13:00:12;;;;;;;9.68;3.95;;;19.80;99.90;;;;;;4994843;28;20105;-71
2022/09/08 13:02:56;;;;;;;8.73;4.40;;;19.90;99.90;;;;;;5012327;28;20081;-70
2022/09/08 13:05:46;;;;;;;10.80;3.90;;;19.80;99.90;;;;;;4993241;28;20481;-68
2022/09/08 13:08:26;;;;;;;6.38;3.95;;;19.70;99.90;;;;;;5010929;28;20026;-71
2022/09/08 13:11:24;;;;;;;6.45;3.25;;;19.70;99.90;;;;;;5013353;28;20052;-69
2022/09/08 13:13:49;;;;;;;7.50;4.15;;;19.90;99.90;;;;;;4995791;28;20647;-70
2022/09/08 13:16:53;;;;;;;7.60;3.67;;;20.00;99.90;;;;;;5013530;28;20044;-70
2022/09/08 13:19:24;;;;;;;4.00;3.55;;;20.10;99.90;;;;;;4995232;28;20133;-71
2022/09/08 13:21:59;;;;;;;9.10;3.63;;;20.10;99.90;;;;;;4992850;28;20037;-70
2022/09/08 13:24:48;;;;;;;7.22;3.60;;;20.00;99.90;;;;;;5010477;28;20057;-71
2022/09/08 13:28:04;;;;;;;9.18;6.88;;;20.00;99.90;;;;;;5010382;28;20109;-70
2022/09/08 13:31:07;;;;;;;7.63;4.28;;;20.10;99.90;;;;;;4984210;28;20038;-70
2022/09/08 13:33:35;;;;;;;7.72;4.28;;;20.20;99.90;;;;;;4962930;28;20049;-69
2022/09/08 13:36:07;;;;;;;7.30;3.55;;;20.30;99.90;;;;;;5011265;28;20101;-71
2022/09/08 13:39:20;;;;;;;8.30;2.88;;;20.40;99.90;;;;;;5004827;28;20129;-72
2022/09/08 13:42:43;;;;;;;2.78;2.28;;;20.40;99.90;;;;;;5010739;28;20048;-72
2022/09/08 13:45:53;;;;;;;5.55;2.47;;;20.50;99.90;;;;;;4920596;29;20115;-71
2022/09/08 13:48:40;;;;;;;5.72;2.85;;;20.50;99.90;;;;;;4940798;29;20054;-70
2022/09/08 13:51:45;;;;;;;7.15;3.67;;;20.60;99.90;;;;;;4930966;29;20020;-72
2022/09/08 13:54:48;;;;;;;7.82;3.65;;;20.60;99.90;;;;;;5009804;28;20068;-71
2022/09/08 13:57:32;;;;;;;10.45;4.25;;;20.70;99.90;;;;;;5017285;28;20022;-69
2022/09/08 14:00:07;;;;;;;4.78;3.42;;;20.80;99.90;;;;;;5002350;28;20026;-72
2022/09/08 14:02:48;;;;;;;12.88;4.10;;;20.90;99.90;;;;;;5010977;28;20101;-68
2022/09/08 14:05:43;;;;;;;7.43;3.80;;;21.00;99.90;;;;;;5019348;28;20022;-72
2022/09/08 14:08:15;;;;;;;6.95;5.78;;;21.10;99.90;;;;;;5015535;28;20112;-71
2022/09/08 14:10:41;;;;;;;8.57;5.35;;;21.20;99.90;;;;;;5016539;28;20108;-69
2022/09/08 14:13:32;;;;;;;18.63;6.82;;;21.30;99.90;;;;;;4989840;28;20467;-71
2022/09/08 14:16:19;;;;;;;6.30;5.67;;;21.30;99.90;;;;;;4998002;28;20037;-71
2022/09/08 14:19:09;;;;;;;7.38;4.72;;;21.50;99.90;;;;;;5010532;28;20108;-70
2022/09/08 14:21:45;;;;;;;11.88;4.85;;;21.70;99.90;;;;;;5007728;28;20122;-70
2022/09/08 14:24:30;;;;;;;7.88;5.55;;;21.90;99.90;;;;;;5011917;28;20030;-70
2022/09/08 14:26:56;;;;;;;7.80;4.72;;;22.10;99.90;;;;;;4992584;28;20025;-71
2022/09/08 14:29:30;;;;;;;5.80;4.07;;;22.10;99.90;;;;;;5012101;28;20057;-69
2022/09/08 14:32:08;;;;;;;5.78;3.25;;;22.30;99.90;;;;;;5010536;28;20036;-70
2022/09/08 14:34:52;;;;;;;4.07;3.08;;;22.30;99.90;;;;;;5003727;28;20049;-69
2022/09/08 14:37:26;;;;;;;6.97;4.53;;;22.40;99.90;;;;;;5009175;28;20384;-68